This is the latest recevied weather packets stored in our database for station/object KJ5IMV-13. If no packets are shown the sender has not sent any weather packets the latest 10 day(s).
| Time | Temp. | Humidity | Pressure | Rain* | Wind** | Luminosity | Snow |
|---|---|---|---|---|---|---|---|
| 1788059618 | 28.89° C | 85% | 1010.4 hPa | - | - | - | - |
| 1788059015 | 28.89° C | 85% | 1010.3 hPa | - | - | - | - |
| 1788058714 | 28.89° C | 85% | 1010.2 hPa | - | - | - | - |
| 1788058112 | 28.89° C | 84% | 1010.3 hPa | - | - | - | - |
| 1788057509 | 29.44° C | 84% | 1010.3 hPa | - | - | - | - |
| 1788056906 | 29.44° C | 83% | 1010 hPa | - | - | - | - |
| 1788056303 | 29.44° C | 83% | 1009.8 hPa | - | - | - | - |
| 1788055097 | 30° C | 82% | 1009.4 hPa | - | - | - | - |
| 1788054192 | 30° C | 81% | 1009.2 hPa | - | - | - | - |
| 1788053892 | 30° C | 81% | 1009.2 hPa | - | - | - | - |
| 1788053288 | 30.56° C | 80% | 1009 hPa | - | - | - | - |
| 1788051782 | 31.11° C | 78% | 1008.8 hPa | - | - | - | - |
| 1788051480 | 31.11° C | 78% | 1008.7 hPa | - | - | - | - |
| 1788051179 | 31.67° C | 78% | 1008.7 hPa | - | - | - | - |
| 1788050877 | 31.67° C | 77% | 1008.9 hPa | - | - | - | - |
| 1788050576 | 31.67° C | 76% | 1008.8 hPa | - | - | - | - |
| 1788050274 | 31.67° C | 76% | 1008.9 hPa | - | - | - | - |
| 1788046358 | 35° C | 55% | 1008.8 hPa | - | - | - | - |
| 1788045754 | 35° C | 55% | 1008.8 hPa | - | - | - | - |
| 1788040027 | 36.67° C | 54% | 1009 hPa | - | - | - | - |
| 1788039726 | 36.67° C | 55% | 1009 hPa | - | - | - | - |
| 1788038822 | 36.67° C | 52% | 1009.2 hPa | - | - | - | - |
| 1788038520 | 36.67° C | 52% | 1009.3 hPa | - | - | - | - |
| 1788038219 | 36.67° C | 54% | 1009.3 hPa | - | - | - | - |
| 1788037918 | 36.67° C | 56% | 1009.4 hPa | - | - | - | - |
* Rain since midnight (hover to see other rain measurements)
** Current wind speed in m/s (hover to see current wind gust speed)